Time;durP1;ratioP1;P1;durP2;ratioP2;P2;SDS_P1;SDS_P2;PMS_P1;PMS_P2;Temp;Humidity;BMP_temperature;BMP_pressure;BME280_temperature;BME280_humidity;BME280_pressure;Samples;Min_cycle;Max_cycle;Signal;HPM_P1;HPM_P2
2021/12/31 00:00:07;;;;;;;18.80;2.25;;;13.10;99.90;;;;;;5078386;28;20040;-73
2021/12/31 00:02:32;;;;;;;13.85;2.42;;;13.00;99.90;;;;;;5095528;28;20051;-72
2021/12/31 00:04:58;;;;;;;19.05;2.28;;;13.10;99.90;;;;;;5077568;28;20492;-72
2021/12/31 00:07:24;;;;;;;12.00;2.00;;;13.10;99.90;;;;;;5113672;28;20391;-73
2021/12/31 00:09:50;;;;;;;12.93;1.92;;;13.10;99.90;;;;;;5094934;28;20075;-73
2021/12/31 00:12:16;;;;;;;10.40;2.22;;;13.10;99.90;;;;;;5113783;28;20047;-74
2021/12/31 00:14:42;;;;;;;13.93;2.95;;;13.10;99.90;;;;;;5095113;28;20509;-77
2021/12/31 00:17:08;;;;;;;15.85;2.83;;;13.10;99.90;;;;;;5113246;28;20048;-75
2021/12/31 00:19:40;;;;;;;18.35;2.45;;;13.10;99.90;;;;;;5095081;28;20047;-72
2021/12/31 00:22:32;;;;;;;13.60;2.50;;;13.10;99.90;;;;;;5128915;27;20040;-74
2021/12/31 00:24:51;;;;;;;15.40;2.63;;;13.10;99.90;;;;;;5129234;27;20055;-72
2021/12/31 00:27:17;;;;;;;12.73;2.40;;;13.10;99.90;;;;;;5113268;28;20047;-74
2021/12/31 00:29:43;;;;;;;10.73;2.10;;;13.10;99.90;;;;;;5113263;28;20059;-78
2021/12/31 00:32:09;;;;;;;12.65;2.85;;;13.10;99.90;;;;;;5095316;28;20202;-72
2021/12/31 00:34:35;;;;;;;11.07;2.80;;;13.10;99.90;;;;;;5129241;27;20043;-72
2021/12/31 00:37:01;;;;;;;12.38;2.67;;;13.10;99.90;;;;;;5095096;28;20043;-73
2021/12/31 00:39:26;;;;;;;11.52;2.60;;;13.10;99.90;;;;;;5094641;28;20036;-73
2021/12/31 00:41:52;;;;;;;14.80;3.22;;;13.10;99.90;;;;;;5113254;28;20051;-72
2021/12/31 00:44:19;;;;;;;12.10;3.00;;;13.10;99.90;;;;;;5078762;28;20445;-73
2021/12/31 00:46:44;;;;;;;11.98;3.28;;;13.20;99.90;;;;;;5111429;28;20042;-77
2021/12/31 00:49:10;;;;;;;16.85;3.65;;;13.20;99.90;;;;;;5094268;28;20047;-74
2021/12/31 00:51:36;;;;;;;16.92;2.95;;;13.20;99.90;;;;;;5095530;28;20046;-74
2021/12/31 00:54:02;;;;;;;16.75;3.35;;;13.20;99.90;;;;;;5112857;28;20145;-73
2021/12/31 00:56:27;;;;;;;16.05;3.55;;;13.20;99.90;;;;;;5078312;28;20120;-74
2021/12/31 00:58:53;;;;;;;16.70;3.40;;;13.20;99.90;;;;;;5060991;28;20054;-73
2021/12/31 01:01:21;;;;;;;12.82;3.08;;;13.20;99.90;;;;;;5112998;28;20073;-73
2021/12/31 01:03:48;;;;;;;13.50;2.90;;;13.30;99.90;;;;;;5077474;28;20514;-78
2021/12/31 01:06:14;;;;;;;;;;;13.20;99.90;;;;;;5113317;28;20048;-73
2021/12/31 01:08:41;;;;;;;8.30;2.57;;;13.20;99.90;;;;;;5094597;28;19927;-76
2021/12/31 01:11:07;;;;;;;13.60;2.73;;;13.20;99.90;;;;;;5077700;28;20153;-72
2021/12/31 01:16:23;;;;;;;20.30;3.08;;;13.20;99.90;;;;;;5084031;28;20059;-74
2021/12/31 01:21:21;;;;;;;18.23;2.92;;;13.20;99.90;;;;;;5112715;28;20192;-71
2021/12/31 01:23:48;;;;;;;9.70;2.55;;;13.20;99.90;;;;;;5094706;28;20051;-76
2021/12/31 01:26:14;;;;;;;15.75;2.70;;;13.20;99.90;;;;;;5077769;28;20154;-74
2021/12/31 01:28:40;;;;;;;11.52;2.55;;;13.20;99.90;;;;;;5111807;28;20502;-77
2021/12/31 01:31:06;;;;;;;12.77;2.70;;;13.20;99.90;;;;;;5094799;28;20477;-71
2021/12/31 01:33:32;;;;;;;17.42;2.75;;;13.10;99.90;;;;;;5112597;28;20040;-73
2021/12/31 01:35:58;;;;;;;11.43;2.50;;;13.20;99.90;;;;;;5094203;28;20109;-72
2021/12/31 01:38:24;;;;;;;18.27;3.53;;;13.20;99.90;;;;;;5094618;28;20051;-72
2021/12/31 01:40:51;;;;;;;10.23;2.63;;;13.20;99.90;;;;;;5077004;28;20055;-74
2021/12/31 01:43:19;;;;;;;12.10;3.25;;;13.20;99.90;;;;;;5111561;28;20128;-74
2021/12/31 01:45:55;;;;;;;10.10;3.10;;;13.20;99.90;;;;;;5113193;28;20051;-73
2021/12/31 01:48:33;;;;;;;15.07;3.60;;;13.20;99.90;;;;;;5112526;28;20048;-74
2021/12/31 01:50:59;;;;;;;16.60;3.70;;;13.20;99.90;;;;;;5113671;28;20178;-72
2021/12/31 01:53:26;;;;;;;13.23;3.95;;;13.30;99.90;;;;;;5064135;28;20514;-73
2021/12/31 01:55:55;;;;;;;;;;;13.30;99.90;;;;;;5117087;28;20210;-73
2021/12/31 01:58:23;;;;;;;14.88;4.30;;;13.30;99.90;;;;;;5081177;28;19924;-72
2021/12/31 02:00:49;;;;;;;12.02;4.80;;;13.30;99.90;;;;;;5132503;27;20134;-75
2021/12/31 02:03:18;;;;;;;16.00;4.72;;;13.30;99.90;;;;;;5097217;28;20142;-71
2021/12/31 02:05:44;;;;;;;14.30;4.60;;;13.30;99.90;;;;;;5098061;28;20055;-73
2021/12/31 02:08:10;;;;;;;17.05;4.65;;;13.30;99.90;;;;;;5115725;28;20098;-73
2021/12/31 02:10:35;;;;;;;17.60;4.68;;;13.20;99.90;;;;;;5132483;27;20044;-73
2021/12/31 02:13:01;;;;;;;10.93;4.47;;;13.30;99.90;;;;;;5115594;28;20044;-73
2021/12/31 02:15:30;;;;;;;16.58;4.88;;;13.30;99.90;;;;;;5115875;28;20039;-73
2021/12/31 02:17:57;;;;;;;12.43;4.97;;;13.30;99.90;;;;;;5097506;28;20044;-75
2021/12/31 02:20:34;;;;;;;15.48;4.65;;;13.30;99.90;;;;;;5131379;27;20536;-73
2021/12/31 02:23:06;;;;;;;14.90;4.60;;;13.30;99.90;;;;;;5098239;28;20089;-74
2021/12/31 02:25:35;;;;;;;9.88;3.60;;;13.30;99.90;;;;;;5098209;28;20391;-73
2021/12/31 02:28:01;;;;;;;13.65;4.70;;;13.30;99.90;;;;;;5115110;27;20108;-73
2021/12/31 02:30:28;;;;;;;15.90;5.03;;;13.30;99.90;;;;;;5097275;28;20446;-74
2021/12/31 02:32:54;;;;;;;18.58;4.55;;;13.30;99.90;;;;;;5080990;28;20075;-78
2021/12/31 02:35:20;;;;;;;14.73;5.60;;;13.40;99.90;;;;;;5130724;27;20532;-72
2021/12/31 02:37:46;;;;;;;12.07;5.10;;;13.40;99.90;;;;;;5080341;28;20130;-74
2021/12/31 02:40:14;;;;;;;13.18;5.32;;;13.40;99.90;;;;;;5131099;27;20056;-73
2021/12/31 02:42:41;;;;;;;15.63;5.40;;;13.50;99.90;;;;;;5115838;28;20079;-72
2021/12/31 02:45:09;;;;;;;12.10;5.05;;;13.50;99.90;;;;;;5114012;28;20096;-73
2021/12/31 02:47:37;;;;;;;13.73;5.57;;;13.60;99.90;;;;;;5096688;28;20570;-72
2021/12/31 02:50:05;;;;;;;15.23;5.55;;;13.60;99.90;;;;;;5096846;28;20052;-73
2021/12/31 02:52:32;;;;;;;16.80;5.80;;;13.50;99.90;;;;;;5115019;28;20051;-73
2021/12/31 02:55:00;;;;;;;13.00;5.20;;;13.50;99.90;;;;;;5113657;28;20056;-75
2021/12/31 02:57:26;;;;;;;14.60;6.10;;;13.50;99.90;;;;;;5115070;28;20063;-71
2021/12/31 02:59:52;;;;;;;10.85;5.35;;;13.50;99.90;;;;;;5114937;28;20044;-72
2021/12/31 03:02:24;;;;;;;11.48;5.85;;;13.50;99.90;;;;;;5096190;28;20060;-73
2021/12/31 03:04:51;;;;;;;13.13;5.95;;;13.50;99.90;;;;;;5130607;27;20055;-73
2021/12/31 03:07:18;;;;;;;15.45;5.85;;;13.60;99.90;;;;;;5114390;28;20047;-72
2021/12/31 03:09:47;;;;;;;15.30;6.57;;;13.50;99.90;;;;;;5096512;28;20051;-74
2021/12/31 03:12:14;;;;;;;14.98;5.90;;;13.50;99.90;;;;;;5113218;28;20047;-72
2021/12/31 03:14:44;;;;;;;16.40;6.72;;;13.50;99.90;;;;;;5079454;28;20079;-73
2021/12/31 03:17:11;;;;;;;12.23;6.20;;;13.50;99.90;;;;;;5114511;28;20131;-73
2021/12/31 03:19:37;;;;;;;12.38;6.15;;;13.50;99.90;;;;;;5114514;28;20047;-74
2021/12/31 03:22:04;;;;;;;14.68;6.63;;;13.60;99.90;;;;;;5096840;28;20081;-74
2021/12/31 03:24:31;;;;;;;12.55;5.88;;;13.60;99.90;;;;;;5095998;28;20554;-74
2021/12/31 03:26:56;;;;;;;14.18;6.43;;;13.60;99.90;;;;;;5113455;28;20052;-74
2021/12/31 03:29:23;;;;;;;14.63;6.32;;;13.60;99.90;;;;;;5114153;28;20047;-72
2021/12/31 03:31:49;;;;;;;13.43;5.70;;;13.60;99.90;;;;;;5114397;28;20047;-72
2021/12/31 03:34:14;;;;;;;14.75;6.18;;;13.60;99.90;;;;;;5114417;28;20055;-72
2021/12/31 03:36:41;;;;;;;11.77;6.78;;;13.60;99.90;;;;;;5114255;28;20044;-73
2021/12/31 03:39:08;;;;;;;20.33;6.72;;;13.60;99.90;;;;;;5096226;28;20495;-73
2021/12/31 03:41:34;;;;;;;9.95;6.00;;;13.60;99.90;;;;;;5096662;28;20379;-72
2021/12/31 03:43:59;;;;;;;14.18;5.85;;;13.60;99.90;;;;;;5095912;28;20130;-75
2021/12/31 03:46:25;;;;;;;10.32;5.57;;;13.60;99.90;;;;;;5095890;28;20057;-71
2021/12/31 03:48:51;;;;;;;16.83;5.53;;;13.60;99.90;;;;;;5113891;28;20043;-72
2021/12/31 03:51:17;;;;;;;14.82;6.63;;;13.60;99.90;;;;;;5096080;28;20130;-72
2021/12/31 03:53:43;;;;;;;13.77;6.05;;;13.60;99.90;;;;;;5078859;28;20053;-73
2021/12/31 03:56:09;;;;;;;15.10;6.47;;;13.60;99.90;;;;;;5114289;28;20097;-73
2021/12/31 03:58:35;;;;;;;14.60;5.18;;;13.50;99.90;;;;;;5078830;28;20047;-72
2021/12/31 04:01:03;;;;;;;15.77;6.32;;;13.60;99.90;;;;;;5095837;28;20048;-75
2021/12/31 04:03:29;;;;;;;14.00;6.13;;;13.60;99.90;;;;;;5095573;28;20407;-73
2021/12/31 04:05:55;;;;;;;14.40;5.97;;;13.50;99.90;;;;;;5113308;28;20480;-73
2021/12/31 04:08:21;;;;;;;12.27;5.05;;;13.60;99.90;;;;;;5113506;28;20051;-72
2021/12/31 04:10:47;;;;;;;11.95;5.68;;;13.60;99.90;;;;;;5095744;28;20043;-72
2021/12/31 04:13:13;;;;;;;11.50;5.05;;;13.60;99.90;;;;;;5112321;28;20036;-73
2021/12/31 04:15:40;;;;;;;12.23;4.63;;;13.60;99.90;;;;;;5113555;28;20482;-72
2021/12/31 04:18:05;;;;;;;15.32;5.95;;;13.60;99.90;;;;;;5113377;28;20441;-74
2021/12/31 04:20:44;;;;;;;11.85;5.13;;;13.60;99.90;;;;;;5113360;28;20058;-73
2021/12/31 04:23:27;;;;;;;14.05;5.63;;;13.60;99.90;;;;;;5113587;28;20136;-72
2021/12/31 04:25:54;;;;;;;12.02;5.07;;;13.60;99.90;;;;;;5112996;28;20126;-71
2021/12/31 04:28:20;;;;;;;11.80;4.80;;;13.60;99.90;;;;;;5078269;28;20126;-73
2021/12/31 04:30:45;;;;;;;13.25;4.80;;;13.60;99.90;;;;;;5078382;28;20090;-73
2021/12/31 04:33:11;;;;;;;10.40;4.20;;;13.60;99.90;;;;;;5094909;28;20488;-73
2021/12/31 04:35:37;;;;;;;10.70;3.75;;;13.60;99.90;;;;;;5095680;28;20470;-73
2021/12/31 04:38:03;;;;;;;9.15;3.75;;;13.70;99.90;;;;;;5061900;28;20368;-76
2021/12/31 04:40:28;;;;;;;13.45;3.45;;;13.60;99.90;;;;;;5094978;28;20050;-73
2021/12/31 04:42:54;;;;;;;10.25;2.95;;;13.60;99.90;;;;;;5113047;28;20047;-73
2021/12/31 04:45:20;;;;;;;9.63;2.75;;;13.60;99.90;;;;;;5078123;28;20047;-72
2021/12/31 04:47:46;;;;;;;8.43;2.80;;;13.70;99.90;;;;;;5113645;28;20051;-72
2021/12/31 04:50:12;;;;;;;8.73;2.73;;;13.70;99.90;;;;;;5129039;27;20160;-73
2021/12/31 04:52:40;;;;;;;7.53;2.03;;;13.70;99.90;;;;;;5113100;28;20064;-73
2021/12/31 04:55:06;;;;;;;6.57;1.98;;;13.70;99.90;;;;;;5112646;28;20499;-78
2021/12/31 04:57:32;;;;;;;6.55;2.10;;;13.70;99.90;;;;;;5113009;28;20050;-72
2021/12/31 04:59:58;;;;;;;8.27;2.17;;;13.70;99.90;;;;;;5113166;28;20100;-72
2021/12/31 05:02:24;;;;;;;8.27;2.13;;;13.70;99.90;;;;;;5094743;28;20156;-72
2021/12/31 05:04:50;;;;;;;7.35;2.10;;;13.70;99.90;;;;;;5094365;28;20138;-74
2021/12/31 05:07:15;;;;;;;8.57;2.22;;;13.70;99.90;;;;;;5113079;28;20177;-73
2021/12/31 05:09:41;;;;;;;9.23;2.25;;;13.80;99.90;;;;;;5078037;28;20396;-74
2021/12/31 05:12:12;;;;;;;7.28;1.40;;;13.80;99.90;;;;;;5094768;28;20395;-77
2021/12/31 05:14:38;;;;;;;6.45;1.52;;;13.80;99.90;;;;;;5078601;28;20074;-73
2021/12/31 05:17:04;;;;;;;5.07;1.65;;;13.80;99.90;;;;;;5094821;28;20044;-74
2021/12/31 05:19:29;;;;;;;6.10;1.30;;;13.80;99.90;;;;;;5111118;28;20039;-73
2021/12/31 05:21:55;;;;;;;6.78;1.55;;;13.70;99.90;;;;;;5112889;28;20123;-73
2021/12/31 05:24:21;;;;;;;5.43;1.30;;;13.70;99.90;;;;;;5095376;28;20047;-74
2021/12/31 05:26:47;;;;;;;5.63;1.65;;;13.70;99.90;;;;;;5081947;28;20234;-77
2021/12/31 05:29:12;;;;;;;6.65;1.25;;;13.70;99.90;;;;;;5116563;28;20043;-74
2021/12/31 05:31:38;;;;;;;5.28;1.30;;;13.60;99.90;;;;;;5081376;28;20131;-74
2021/12/31 05:34:04;;;;;;;4.70;1.13;;;13.50;99.90;;;;;;5098053;28;20039;-72
2021/12/31 05:36:30;;;;;;;9.70;1.30;;;13.50;99.90;;;;;;5116429;28;20161;-73
2021/12/31 05:38:55;;;;;;;4.47;1.40;;;13.50;99.90;;;;;;5098127;28;20089;-73
2021/12/31 05:41:21;;;;;;;5.57;1.25;;;13.40;99.90;;;;;;5116837;28;20100;-73
2021/12/31 05:43:47;;;;;;;6.38;1.52;;;13.30;99.90;;;;;;5081536;28;20051;-72
2021/12/31 05:46:13;;;;;;;5.72;1.30;;;13.30;99.90;;;;;;5116257;28;20143;-74
2021/12/31 05:48:38;;;;;;;8.18;1.30;;;13.20;99.90;;;;;;5097969;28;20047;-72
2021/12/31 05:51:04;;;;;;;5.85;1.50;;;13.10;99.90;;;;;;5081437;28;20051;-74
2021/12/31 05:53:30;;;;;;;8.80;1.60;;;13.00;99.90;;;;;;5097740;28;20063;-74
2021/12/31 05:55:56;;;;;;;8.80;1.33;;;12.90;99.90;;;;;;5131756;27;20047;-73
2021/12/31 05:58:22;;;;;;;5.57;1.50;;;12.90;99.90;;;;;;5116542;28;20372;-74
2021/12/31 06:00:48;;;;;;;5.25;1.00;;;12.80;99.90;;;;;;5097956;28;20050;-73
2021/12/31 06:03:14;;;;;;;13.25;2.20;;;12.90;99.90;;;;;;5080199;28;20051;-72
2021/12/31 06:05:40;;;;;;;4.35;1.15;;;12.80;99.90;;;;;;5115930;28;20117;-74
2021/12/31 06:08:06;;;;;;;6.18;1.20;;;12.80;99.90;;;;;;5081540;28;20512;-74
2021/12/31 06:10:32;;;;;;;6.20;1.38;;;12.90;99.90;;;;;;5081242;28;20036;-74
2021/12/31 06:13:00;;;;;;;6.73;1.60;;;12.90;99.90;;;;;;5080796;28;20066;-74
2021/12/31 06:15:28;;;;;;;9.50;1.90;;;12.90;99.90;;;;;;5097640;28;20039;-73
2021/12/31 06:17:54;;;;;;;8.25;1.73;;;13.00;99.90;;;;;;5115395;28;20075;-74
2021/12/31 06:20:20;;;;;;;4.90;1.30;;;12.90;99.90;;;;;;5097896;28;20181;-73
2021/12/31 06:22:46;;;;;;;8.88;1.98;;;12.90;99.90;;;;;;5115714;28;20044;-72
2021/12/31 06:25:12;;;;;;;4.78;1.30;;;12.90;99.90;;;;;;5096854;28;20058;-76
2021/12/31 06:27:38;;;;;;;8.02;1.50;;;12.90;99.90;;;;;;5080544;28;20060;-74
2021/12/31 06:30:05;;;;;;;4.22;1.40;;;12.80;99.90;;;;;;5080647;28;20134;-75
2021/12/31 06:32:30;;;;;;;;;;;12.80;99.90;;;;;;5116402;28;20147;-75
2021/12/31 06:34:56;;;;;;;4.37;1.53;;;12.70;99.90;;;;;;5116118;28;19963;-74
2021/12/31 06:37:22;;;;;;;5.43;1.42;;;12.70;99.90;;;;;;5096976;28;20046;-73
2021/12/31 06:39:48;;;;;;;7.18;1.60;;;12.70;99.90;;;;;;5098139;28;20114;-73
2021/12/31 06:42:13;;;;;;;6.00;1.73;;;12.80;99.90;;;;;;5096947;28;20520;-76
2021/12/31 06:44:40;;;;;;;9.00;1.95;;;12.70;99.90;;;;;;5115449;28;20039;-74
2021/12/31 06:47:06;;;;;;;6.65;1.50;;;12.70;99.90;;;;;;5115455;28;20039;-74
2021/12/31 06:49:32;;;;;;;5.97;1.50;;;12.60;99.90;;;;;;5080987;28;20063;-73
2021/12/31 06:51:58;;;;;;;6.40;1.67;;;12.60;99.90;;;;;;5115285;28;20384;-73
2021/12/31 06:54:24;;;;;;;13.85;2.88;;;12.60;99.90;;;;;;5115704;28;20042;-73
2021/12/31 06:56:50;;;;;;;9.80;1.88;;;12.50;99.90;;;;;;5096880;28;20047;-72
2021/12/31 06:59:15;;;;;;;8.23;2.20;;;12.50;99.90;;;;;;5097000;28;20096;-76
2021/12/31 07:01:41;;;;;;;7.20;1.77;;;12.50;99.90;;;;;;5079766;28;20048;-74
2021/12/31 07:04:07;;;;;;;7.53;1.88;;;12.60;99.90;;;;;;5096419;28;20407;-73
2021/12/31 07:06:33;;;;;;;7.25;2.05;;;12.60;99.90;;;;;;5096540;28;20101;-73
2021/12/31 07:08:58;;;;;;;6.10;1.60;;;12.50;99.90;;;;;;5096654;28;20047;-73
2021/12/31 07:11:24;;;;;;;8.15;1.73;;;12.50;99.90;;;;;;5079810;28;20130;-73
2021/12/31 07:13:50;;;;;;;11.93;1.98;;;12.40;99.90;;;;;;5114715;28;20475;-73
2021/12/31 07:16:17;;;;;;;8.88;2.30;;;12.40;99.90;;;;;;5114843;28;20039;-78
2021/12/31 07:18:42;;;;;;;8.48;2.10;;;12.30;99.90;;;;;;5080020;28;20051;-78
2021/12/31 07:21:08;;;;;;;7.68;2.15;;;12.30;99.90;;;;;;5096498;28;20043;-72
2021/12/31 07:23:34;;;;;;;7.93;2.00;;;12.20;99.90;;;;;;5097089;28;20051;-73
2021/12/31 07:26:00;;;;;;;7.88;1.70;;;12.30;99.90;;;;;;5115086;28;20463;-74
2021/12/31 07:28:27;;;;;;;6.50;2.20;;;12.20;99.90;;;;;;5062689;28;20567;-73
2021/12/31 07:30:54;;;;;;;10.15;2.15;;;12.20;99.90;;;;;;5079813;28;20132;-73
2021/12/31 07:33:22;;;;;;;9.65;2.42;;;12.20;99.90;;;;;;5079340;28;20097;-74
2021/12/31 07:35:52;;;;;;;10.40;2.25;;;12.10;99.90;;;;;;5080122;28;20043;-73
2021/12/31 07:38:24;;;;;;;7.55;2.00;;;12.10;99.90;;;;;;5130590;27;20068;-78
2021/12/31 07:40:51;;;;;;;7.65;2.90;;;12.10;99.90;;;;;;5097144;28;20051;-75
2021/12/31 07:43:18;;;;;;;7.13;2.65;;;12.10;99.90;;;;;;5114229;28;20093;-73
2021/12/31 07:45:44;;;;;;;9.30;2.42;;;12.10;99.90;;;;;;5115069;28;20093;-73
2021/12/31 07:48:10;;;;;;;8.80;2.20;;;12.00;99.90;;;;;;5095674;28;20107;-73
2021/12/31 07:50:37;;;;;;;8.53;2.50;;;12.10;99.90;;;;;;5078812;28;20086;-73
2021/12/31 07:53:04;;;;;;;7.82;2.50;;;12.10;99.90;;;;;;5130845;27;20044;-71
2021/12/31 07:55:31;;;;;;;6.82;2.50;;;12.00;99.90;;;;;;5129929;27;20112;-74
2021/12/31 07:57:57;;;;;;;6.68;2.10;;;12.10;99.90;;;;;;5113146;27;20093;-74
2021/12/31 08:00:22;;;;;;;9.55;2.50;;;12.10;99.90;;;;;;5096049;28;20430;-75
2021/12/31 08:02:49;;;;;;;8.90;2.42;;;12.10;99.90;;;;;;5078894;28;20058;-74
2021/12/31 08:05:15;;;;;;;6.82;2.70;;;12.20;99.90;;;;;;5113566;28;20055;-74
2021/12/31 08:07:40;;;;;;;6.00;2.33;;;12.20;99.90;;;;;;5078653;28;20150;-74
2021/12/31 08:10:07;;;;;;;9.18;2.72;;;12.20;99.90;;;;;;5113500;28;20082;-73
2021/12/31 08:12:36;;;;;;;10.23;2.50;;;12.40;99.90;;;;;;5095280;28;20036;-74
2021/12/31 08:15:03;;;;;;;9.57;2.90;;;12.40;99.90;;;;;;5095190;28;20088;-75
2021/12/31 08:17:29;;;;;;;10.07;2.47;;;12.50;99.90;;;;;;5129419;27;20078;-73
2021/12/31 08:19:54;;;;;;;8.88;2.65;;;12.60;99.90;;;;;;5078723;28;20047;-73
2021/12/31 08:22:22;;;;;;;9.50;2.88;;;12.60;99.90;;;;;;5113219;28;20455;-73
2021/12/31 08:24:48;;;;;;;10.93;2.38;;;12.60;99.90;;;;;;5095029;28;20047;-75
2021/12/31 08:27:14;;;;;;;11.70;2.50;;;12.60;99.90;;;;;;5095732;28;20039;-74
2021/12/31 08:29:39;;;;;;;6.93;2.08;;;12.60;99.90;;;;;;5113253;28;20506;-74
2021/12/31 08:32:06;;;;;;;8.80;2.35;;;12.70;99.90;;;;;;5113461;28;20471;-74
2021/12/31 08:34:32;;;;;;;8.70;2.53;;;12.70;99.90;;;;;;5078322;28;20441;-74
2021/12/31 08:36:58;;;;;;;6.93;1.98;;;12.70;99.90;;;;;;5078356;28;20083;-74
2021/12/31 08:39:24;;;;;;;7.22;2.38;;;12.70;99.90;;;;;;5095732;28;20156;-74
2021/12/31 08:41:50;;;;;;;10.18;2.22;;;12.80;99.90;;;;;;5060937;28;20441;-72
2021/12/31 08:44:16;;;;;;;8.85;2.25;;;12.80;99.90;;;;;;5078273;28;20043;-74
2021/12/31 08:46:43;;;;;;;7.18;2.15;;;12.80;99.90;;;;;;5094852;28;20087;-74
2021/12/31 08:49:09;;;;;;;7.35;2.45;;;12.80;99.90;;;;;;5113104;28;20051;-72
2021/12/31 08:51:35;;;;;;;8.13;2.47;;;12.90;99.90;;;;;;5113081;28;20043;-73
2021/12/31 08:54:01;;;;;;;7.90;2.25;;;13.00;99.90;;;;;;5094761;28;20040;-73
2021/12/31 08:56:27;;;;;;;7.07;2.15;;;12.90;99.90;;;;;;5112523;28;20050;-76
2021/12/31 08:58:52;;;;;;;7.10;2.25;;;12.90;99.90;;;;;;5095435;28;20537;-74
2021/12/31 09:01:19;;;;;;;7.55;2.40;;;13.00;99.90;;;;;;5101304;28;20051;-73
2021/12/31 09:03:45;;;;;;;10.48;2.90;;;13.00;99.90;;;;;;5067276;28;20491;-76
2021/12/31 09:06:11;;;;;;;8.45;2.00;;;13.00;99.90;;;;;;5135724;27;20066;-73
2021/12/31 09:08:38;;;;;;;8.10;2.00;;;13.00;99.90;;;;;;5101441;28;20403;-73
2021/12/31 09:11:04;;;;;;;8.70;2.33;;;13.00;99.90;;;;;;5119683;28;20126;-77
2021/12/31 09:13:31;;;;;;;6.30;2.05;;;13.00;99.90;;;;;;5119214;28;20049;-74
2021/12/31 09:15:57;;;;;;;8.23;2.67;;;13.00;99.90;;;;;;5100851;28;20059;-74
2021/12/31 09:18:23;;;;;;;5.22;1.85;;;13.00;99.90;;;;;;5119556;28;20047;-74
2021/12/31 09:20:53;;;;;;;8.13;2.28;;;13.00;99.90;;;;;;5119377;28;20044;-73
2021/12/31 09:23:18;;;;;;;6.90;1.77;;;13.00;99.90;;;;;;5118250;27;20043;-73
2021/12/31 09:25:44;;;;;;;8.63;2.35;;;13.00;99.90;;;;;;5101531;28;20047;-73
2021/12/31 09:28:11;;;;;;;9.73;2.65;;;13.00;99.90;;;;;;5119395;28;20043;-76
2021/12/31 09:30:36;;;;;;;7.35;2.03;;;13.00;99.90;;;;;;5101440;28;20127;-75
2021/12/31 09:33:02;;;;;;;8.00;2.30;;;13.00;99.90;;;;;;5068306;28;20131;-75
2021/12/31 09:35:28;;;;;;;6.47;2.17;;;13.10;99.90;;;;;;5101156;28;20058;-73
2021/12/31 09:37:54;;;;;;;7.20;2.38;;;13.10;99.90;;;;;;5135993;27;20357;-74
2021/12/31 09:40:20;;;;;;;6.65;1.85;;;13.20;99.90;;;;;;5101308;28;20050;-75
2021/12/31 09:42:58;;;;;;;10.93;2.40;;;13.20;99.90;;;;;;5100946;28;20054;-74
2021/12/31 09:45:26;;;;;;;8.60;3.00;;;13.20;99.90;;;;;;5084561;28;20054;-73
2021/12/31 09:47:52;;;;;;;7.70;2.83;;;13.20;99.90;;;;;;5084203;28;20048;-76
2021/12/31 09:50:20;;;;;;;8.48;3.05;;;13.20;99.90;;;;;;5119449;28;20039;-75
2021/12/31 09:52:46;;;;;;;8.88;2.70;;;13.10;99.90;;;;;;5100670;28;20052;-73
2021/12/31 09:55:11;;;;;;;8.18;2.53;;;13.10;99.90;;;;;;5119381;28;20077;-74
2021/12/31 09:57:37;;;;;;;6.63;2.42;;;13.20;99.90;;;;;;5083890;28;20074;-74
2021/12/31 10:00:04;;;;;;;7.40;2.58;;;13.20;99.90;;;;;;5101397;28;20051;-74
2021/12/31 10:02:33;;;;;;;11.98;2.70;;;13.20;99.90;;;;;;5118848;28;20051;-74
2021/12/31 10:05:03;;;;;;;9.10;2.50;;;13.20;99.90;;;;;;5096975;28;20462;-75
2021/12/31 10:07:29;;;;;;;6.28;2.25;;;13.20;99.90;;;;;;5097351;28;20095;-75
2021/12/31 10:10:24;;;;;;;9.77;2.37;;;13.30;99.90;;;;;;5097554;28;20062;-74
2021/12/31 10:12:56;;;;;;;6.97;2.92;;;13.30;99.90;;;;;;5075327;28;20347;-75
2021/12/31 10:15:24;;;;;;;7.50;3.40;;;13.30;99.90;;;;;;5094288;28;20127;-73
2021/12/31 10:17:51;;;;;;;12.63;3.47;;;13.30;99.90;;;;;;5095361;28;20545;-74
2021/12/31 10:20:17;;;;;;;14.18;3.30;;;13.30;99.90;;;;;;5060758;28;20056;-75
2021/12/31 10:22:45;;;;;;;6.47;3.42;;;13.20;99.90;;;;;;5094438;28;20138;-74
2021/12/31 10:25:30;;;;;;;7.63;2.55;;;13.20;99.90;;;;;;5094156;28;20399;-74
2021/12/31 10:28:09;;;;;;;6.28;2.35;;;13.20;99.90;;;;;;5094021;28;20097;-75
2021/12/31 10:30:35;;;;;;;11.70;3.20;;;13.20;99.90;;;;;;5077927;28;20043;-74
2021/12/31 10:33:01;;;;;;;7.87;3.10;;;13.10;99.90;;;;;;5094670;28;20051;-76
2021/12/31 10:35:36;;;;;;;10.85;2.70;;;13.10;99.90;;;;;;5094688;28;20503;-76
2021/12/31 10:38:06;;;;;;;11.63;2.80;;;13.10;99.90;;;;;;5095068;28;20059;-75
2021/12/31 10:40:42;;;;;;;7.88;3.08;;;13.20;99.90;;;;;;5094285;28;20048;-76
2021/12/31 10:43:16;;;;;;;6.97;2.75;;;13.10;99.90;;;;;;5095160;28;20097;-73
2021/12/31 10:46:01;;;;;;;12.00;3.15;;;13.10;99.90;;;;;;5095050;28;20044;-74
2021/12/31 10:48:41;;;;;;;9.77;2.85;;;13.10;99.90;;;;;;5094339;28;20036;-72
2021/12/31 10:51:09;;;;;;;11.07;3.50;;;13.20;99.90;;;;;;5093398;28;20051;-75
2021/12/31 10:53:37;;;;;;;11.77;3.28;;;13.20;99.90;;;;;;5093392;28;20047;-75
2021/12/31 10:56:11;;;;;;;6.85;3.47;;;13.20;99.90;;;;;;5094369;28;20048;-75
2021/12/31 10:58:39;;;;;;;12.70;5.63;;;13.20;99.90;;;;;;5093015;28;20466;-72
2021/12/31 11:01:12;;;;;;;14.30;3.65;;;13.20;99.90;;;;;;5093625;28;20048;-74
2021/12/31 11:03:39;;;;;;;11.93;4.03;;;13.20;99.90;;;;;;5095048;28;20048;-75
2021/12/31 11:06:07;;;;;;;9.45;3.47;;;13.20;99.90;;;;;;5080196;28;20043;-72
2021/12/31 11:08:34;;;;;;;9.60;3.35;;;13.30;99.90;;;;;;5097116;28;20454;-75
2021/12/31 11:11:04;;;;;;;8.70;2.97;;;13.40;99.90;;;;;;5079855;28;20098;-75
2021/12/31 11:13:31;;;;;;;9.25;2.95;;;13.40;99.90;;;;;;5114756;28;20040;-76
2021/12/31 11:16:00;;;;;;;11.88;3.88;;;13.40;99.90;;;;;;5079958;28;20047;-74
2021/12/31 11:18:27;;;;;;;10.35;3.70;;;13.40;99.90;;;;;;5097507;28;20134;-73
2021/12/31 11:21:02;;;;;;;9.77;3.57;;;13.40;99.90;;;;;;5096552;28;20083;-74
2021/12/31 11:23:30;;;;;;;9.00;3.17;;;13.40;99.90;;;;;;5096106;28;20060;-76
2021/12/31 11:26:07;;;;;;;11.20;3.58;;;13.40;99.90;;;;;;5080154;28;20039;-75
2021/12/31 11:28:39;;;;;;;11.00;3.40;;;13.40;99.90;;;;;;5113479;28;20090;-75
2021/12/31 11:31:17;;;;;;;9.98;3.40;;;13.40;99.90;;;;;;5096415;28;20178;-74
2021/12/31 11:33:45;;;;;;;10.90;4.18;;;13.30;99.90;;;;;;5129983;27;20094;-77
2021/12/31 11:36:11;;;;;;;10.07;4.03;;;13.20;99.90;;;;;;5096281;28;20441;-73
2021/12/31 11:38:42;;;;;;;12.73;3.83;;;13.20;99.90;;;;;;5079738;28;20484;-73
2021/12/31 11:41:22;;;;;;;10.82;3.72;;;13.20;99.90;;;;;;5130963;27;20058;-76
2021/12/31 11:44:08;;;;;;;76.65;42.83;;;13.20;99.90;;;;;;5114528;28;20391;-75
2021/12/31 11:47:09;;;;;;;12.90;4.10;;;13.20;99.90;;;;;;5130788;27;20116;-77
2021/12/31 11:49:34;;;;;;;10.65;4.10;;;13.20;99.90;;;;;;5095854;28;20277;-73
2021/12/31 11:52:08;;;;;;;12.48;3.88;;;13.30;99.90;;;;;;5096050;28;20055;-75
2021/12/31 11:54:38;;;;;;;9.68;4.03;;;13.20;99.90;;;;;;5114025;28;20089;-74
2021/12/31 11:57:32;;;;;;;9.77;4.10;;;13.30;99.90;;;;;;5130726;27;20078;-76
2021/12/31 11:59:58;;;;;;;10.60;4.15;;;13.20;99.90;;;;;;5095376;28;20063;-72
2021/12/31 12:02:36;;;;;;;10.95;3.95;;;13.30;99.90;;;;;;5095747;28;20126;-75
2021/12/31 12:05:08;;;;;;;9.27;4.20;;;13.20;99.90;;;;;;5095334;28;20056;-75
2021/12/31 12:07:46;;;;;;;13.32;4.95;;;13.20;99.90;;;;;;5096397;28;20046;-74
2021/12/31 12:10:20;;;;;;;19.35;7.90;;;13.10;99.90;;;;;;5114490;28;20083;-73
2021/12/31 12:12:52;;;;;;;12.35;5.30;;;13.10;99.90;;;;;;5095893;28;20135;-75
2021/12/31 12:15:29;;;;;;;12.60;5.47;;;13.10;99.90;;;;;;5114277;28;20044;-74
2021/12/31 12:17:56;;;;;;;25.98;12.35;;;13.10;99.90;;;;;;5079039;28;20043;-75
2021/12/31 12:20:32;;;;;;;12.38;4.65;;;13.20;99.90;;;;;;5114256;28;20097;-75
2021/12/31 12:22:58;;;;;;;12.00;4.57;;;13.10;99.90;;;;;;5113799;28;20119;-75
2021/12/31 12:25:26;;;;;;;13.98;5.07;;;13.10;99.90;;;;;;5113531;28;20089;-73
2021/12/31 12:27:56;;;;;;;11.25;4.72;;;13.10;99.90;;;;;;5078256;28;20054;-73
2021/12/31 12:30:23;;;;;;;11.43;4.55;;;13.00;99.90;;;;;;5095984;28;20364;-74
2021/12/31 12:35:22;;;;;;;14.00;5.25;;;12.90;99.90;;;;;;5112913;28;20051;-74
2021/12/31 12:37:56;;;;;;;13.45;5.50;;;12.80;99.90;;;;;;5078305;28;20050;-77
2021/12/31 12:40:47;;;;;;;11.82;5.28;;;12.70;99.90;;;;;;5094951;28;20208;-73
2021/12/31 12:43:20;;;;;;;16.17;5.85;;;12.60;99.90;;;;;;5083731;28;20051;-71
2021/12/31 12:45:49;;;;;;;21.38;6.75;;;12.50;99.90;;;;;;5112109;28;20118;-72
2021/12/31 12:48:15;;;;;;;20.65;7.07;;;12.40;99.90;;;;;;5094549;28;20471;-71
2021/12/31 12:50:49;;;;;;;18.48;6.55;;;12.30;99.90;;;;;;5077738;28;20044;-71
2021/12/31 12:53:20;;;;;;;19.02;7.95;;;12.20;99.90;;;;;;5094700;28;20055;-74